Terminal Aerodrome Forecast
Issued by NWS Shreveport, LA

Home | Current Version | Previous Version | Text Only | Print | Product List | Glossary On
Versions: 1 2 3 4 5 6 7 8 9 10 11 12 13 14 15 16 17 18 19
000
FTUS44 KSHV 041700
TAFMLU
TAF
KMLU 041739Z 0418/0518 20008KT P6SM VCTS OVC020CB
      TEMPO 0418/0420 3SM TSRA BR BKN020CB
     FM042200 01015G28KT P6SM -RA OVC008
     FM051200 01020G30KT 5SM -FZRA BR OVC005=

USA.gov is the U.S. government's official web portal to all federal, state and local government web resources and services.